sensor_id;sensor_type;location;lat;lon;timestamp;pressure;altitude;pressure_sealevel;temperature;humidity
21086;BME280;34247;50.064;19.970;2022-08-21T00:00:25;98732.09;;;23.31;91.32
21086;BME280;34247;50.064;19.970;2022-08-21T00:01:34;98739.22;;;23.32;91.27
21086;BME280;34247;50.064;19.970;2022-08-21T00:02:52;98745.84;;;23.30;91.59
21086;BME280;34247;50.064;19.970;2022-08-21T00:04:08;98737.72;;;23.30;91.62
21086;BME280;34247;50.064;19.970;2022-08-21T00:05:12;98737.72;;;23.30;91.46
21086;BME280;34247;50.064;19.970;2022-08-21T00:06:17;98734.16;;;23.29;91.60
21086;BME280;34247;50.064;19.970;2022-08-21T00:07:21;98729.78;;;23.28;91.70
21086;BME280;34247;50.064;19.970;2022-08-21T00:08:28;98731.88;;;23.26;91.99
21086;BME280;34247;50.064;19.970;2022-08-21T00:09:32;98723.09;;;23.24;91.88
21086;BME280;34247;50.064;19.970;2022-08-21T00:10:35;98727.09;;;23.28;91.82
21086;BME280;34247;50.064;19.970;2022-08-21T00:11:40;98728.75;;;23.29;91.85
21086;BME280;34247;50.064;19.970;2022-08-21T00:12:44;98718.75;;;23.30;91.95
21086;BME280;34247;50.064;19.970;2022-08-21T00:13:48;98718.97;;;23.28;92.19
21086;BME280;34247;50.064;19.970;2022-08-21T00:14:53;98721.25;;;23.31;91.85
21086;BME280;34247;50.064;19.970;2022-08-21T00:16:01;98720.44;;;23.31;91.75
21086;BME280;34247;50.064;19.970;2022-08-21T00:17:05;98712.13;;;23.32;91.63
21086;BME280;34247;50.064;19.970;2022-08-21T00:18:12;98711.47;;;23.30;91.76
21086;BME280;34247;50.064;19.970;2022-08-21T00:19:16;98708.75;;;23.30;91.68
21086;BME280;34247;50.064;19.970;2022-08-21T00:20:22;98719.38;;;23.32;91.97
21086;BME280;34247;50.064;19.970;2022-08-21T00:21:26;98706.69;;;23.26;91.83
21086;BME280;34247;50.064;19.970;2022-08-21T00:22:30;98721.91;;;23.33;91.59
21086;BME280;34247;50.064;19.970;2022-08-21T00:23:35;98712.13;;;23.32;91.60
21086;BME280;34247;50.064;19.970;2022-08-21T00:24:39;98718.38;;;23.33;91.72
21086;BME280;34247;50.064;19.970;2022-08-21T00:25:44;98716.69;;;23.32;91.67
21086;BME280;34247;50.064;19.970;2022-08-21T00:26:49;98715.84;;;23.31;91.53
21086;BME280;34247;50.064;19.970;2022-08-21T00:27:55;98715.00;;;23.31;91.71
21086;BME280;34247;50.064;19.970;2022-08-21T00:29:00;98710.44;;;23.31;91.83
21086;BME280;34247;50.064;19.970;2022-08-21T00:30:07;98714.19;;;23.30;91.71
21086;BME280;34247;50.064;19.970;2022-08-21T00:31:12;98702.94;;;23.27;91.87
21086;BME280;34247;50.064;19.970;2022-08-21T00:32:25;98710.00;;;23.28;91.98
21086;BME280;34247;50.064;19.970;2022-08-21T00:33:31;98705.44;;;23.28;91.82
21086;BME280;34247;50.064;19.970;2022-08-21T00:34:35;98707.09;;;23.29;91.90
21086;BME280;34247;50.064;19.970;2022-08-21T00:35:41;98702.09;;;23.26;92.11
21086;BME280;34247;50.064;19.970;2022-08-21T00:36:47;98703.75;;;23.27;91.96
21086;BME280;34247;50.064;19.970;2022-08-21T00:37:51;98704.38;;;23.29;92.18
21086;BME280;34247;50.064;19.970;2022-08-21T00:38:56;98684.78;;;23.21;91.92
21086;BME280;34247;50.064;19.970;2022-08-21T00:40:00;98698.97;;;23.29;91.76
21086;BME280;34247;50.064;19.970;2022-08-21T00:41:09;98703.56;;;23.29;91.86
21086;BME280;34247;50.064;19.970;2022-08-21T00:42:35;98698.59;;;23.32;91.57
21086;BME280;34247;50.064;19.970;2022-08-21T00:43:40;98695.22;;;23.30;91.74
21086;BME280;34247;50.064;19.970;2022-08-21T00:44:47;98696.25;;;23.29;91.69
21086;BME280;34247;50.064;19.970;2022-08-21T00:45:54;98691.69;;;23.30;91.54
21086;BME280;34247;50.064;19.970;2022-08-21T00:46:59;98690.84;;;23.29;91.83
21086;BME280;34247;50.064;19.970;2022-08-21T00:48:03;98692.72;;;23.29;92.02
21086;BME280;34247;50.064;19.970;2022-08-21T00:49:09;98689.19;;;23.28;91.85
21086;BME280;34247;50.064;19.970;2022-08-21T00:50:14;98692.09;;;23.27;92.03
21086;BME280;34247;50.064;19.970;2022-08-21T00:51:35;98688.72;;;23.25;92.02
21086;BME280;34247;50.064;19.970;2022-08-21T00:52:42;98690.22;;;23.27;91.86
21086;BME280;34247;50.064;19.970;2022-08-21T00:53:47;98689.97;;;23.22;92.19
21086;BME280;34247;50.064;19.970;2022-08-21T00:54:58;98688.09;;;23.23;92.35
21086;BME280;34247;50.064;19.970;2022-08-21T00:56:07;98685.59;;;23.21;92.23
21086;BME280;34247;50.064;19.970;2022-08-21T00:57:20;98681.22;;;23.20;92.30
21086;BME280;34247;50.064;19.970;2022-08-21T00:58:29;98681.22;;;23.20;92.41
21086;BME280;34247;50.064;19.970;2022-08-21T00:59:38;98683.94;;;23.20;92.39
21086;BME280;34247;50.064;19.970;2022-08-21T01:00:46;98680.59;;;23.18;92.60
21086;BME280;34247;50.064;19.970;2022-08-21T01:01:52;98683.31;;;23.18;92.77
21086;BME280;34247;50.064;19.970;2022-08-21T01:02:59;98680.78;;;23.17;92.69
21086;BME280;34247;50.064;19.970;2022-08-21T01:04:03;98677.91;;;23.18;92.53
21086;BME280;34247;50.064;19.970;2022-08-21T01:05:09;98679.94;;;23.16;92.89
21086;BME280;34247;50.064;19.970;2022-08-21T01:06:13;98677.03;;;23.18;92.77
21086;BME280;34247;50.064;19.970;2022-08-21T01:07:18;98681.63;;;23.17;92.78
21086;BME280;34247;50.064;19.970;2022-08-21T01:08:25;98680.16;;;23.15;93.04
21086;BME280;34247;50.064;19.970;2022-08-21T01:09:29;98672.03;;;23.15;93.11
21086;BME280;34247;50.064;19.970;2022-08-21T01:10:34;98671.19;;;23.14;93.03
21086;BME280;34247;50.064;19.970;2022-08-21T01:11:41;98679.53;;;23.13;92.95
21086;BME280;34247;50.064;19.970;2022-08-21T01:12:46;98685.78;;;23.13;92.92
21086;BME280;34247;50.064;19.970;2022-08-21T01:13:50;98677.81;;;23.05;93.32
21086;BME280;34247;50.064;19.970;2022-08-21T01:14:55;98682.81;;;23.08;93.24
21086;BME280;34247;50.064;19.970;2022-08-21T01:16:03;98680.31;;;23.06;93.41
21086;BME280;34247;50.064;19.970;2022-08-21T01:17:08;98683.22;;;23.05;93.31
21086;BME280;34247;50.064;19.970;2022-08-21T01:18:16;98676.16;;;23.04;93.54
21086;BME280;34247;50.064;19.970;2022-08-21T01:19:22;98681.16;;;23.07;93.57
21086;BME280;34247;50.064;19.970;2022-08-21T01:20:26;98672.19;;;23.06;93.53
21086;BME280;34247;50.064;19.970;2022-08-21T01:21:35;98667.81;;;23.05;93.63
21086;BME280;34247;50.064;19.970;2022-08-21T01:22:39;98667.81;;;23.05;93.62
21086;BME280;34247;50.064;19.970;2022-08-21T01:23:48;98675.94;;;23.05;93.79
21086;BME280;34247;50.064;19.970;2022-08-21T01:24:52;98657.34;;;22.96;94.04
21086;BME280;34247;50.064;19.970;2022-08-21T01:25:57;98666.16;;;23.04;93.93
21086;BME280;34247;50.064;19.970;2022-08-21T01:27:02;98666.34;;;23.03;93.73
21086;BME280;34247;50.064;19.970;2022-08-21T01:28:14;98670.06;;;23.02;93.98
21086;BME280;34247;50.064;19.970;2022-08-21T01:29:45;98671.75;;;23.03;94.08
21086;BME280;34247;50.064;19.970;2022-08-21T01:30:53;98668.41;;;23.01;93.82
21086;BME280;34247;50.064;19.970;2022-08-21T01:32:02;98663.84;;;23.01;94.08
21086;BME280;34247;50.064;19.970;2022-08-21T01:33:07;98665.91;;;22.99;93.95
21086;BME280;34247;50.064;19.970;2022-08-21T01:34:14;98664.03;;;23.00;94.31
21086;BME280;34247;50.064;19.970;2022-08-21T01:35:20;98669.44;;;23.00;94.25
21086;BME280;34247;50.064;19.970;2022-08-21T01:36:25;98661.75;;;22.97;94.34
21086;BME280;34247;50.064;19.970;2022-08-21T01:37:30;98664.44;;;22.97;94.43
21086;BME280;34247;50.064;19.970;2022-08-21T01:38:35;98656.50;;;22.95;94.47
21086;BME280;34247;50.064;19.970;2022-08-21T01:39:42;98651.94;;;22.96;94.35
21086;BME280;34247;50.064;19.970;2022-08-21T01:40:49;98651.09;;;22.95;94.57
21086;BME280;34247;50.064;19.970;2022-08-21T01:41:54;98646.94;;;22.93;94.86
21086;BME280;34247;50.064;19.970;2022-08-21T01:42:58;98645.06;;;22.93;94.59
21086;BME280;34247;50.064;19.970;2022-08-21T01:44:03;98642.97;;;22.95;94.69
21086;BME280;34247;50.064;19.970;2022-08-21T01:45:08;98647.75;;;22.93;94.89
21086;BME280;34247;50.064;19.970;2022-08-21T01:46:13;98637.97;;;22.92;94.88
21086;BME280;34247;50.064;19.970;2022-08-21T01:47:17;98642.56;;;22.92;94.91
21086;BME280;34247;50.064;19.970;2022-08-21T01:48:21;98646.31;;;22.91;94.90
21086;BME280;34247;50.064;19.970;2022-08-21T01:49:25;98639.22;;;22.90;95.10
21086;BME280;34247;50.064;19.970;2022-08-21T01:50:30;98644.63;;;22.90;95.14
21086;BME280;34247;50.064;19.970;2022-08-21T01:51:34;98645.47;;;22.90;95.16
21086;BME280;34247;50.064;19.970;2022-08-21T01:52:39;98641.94;;;22.90;95.12
21086;BME280;34247;50.064;19.970;2022-08-21T01:53:43;98634.66;;;22.90;95.22
21086;BME280;34247;50.064;19.970;2022-08-21T01:54:47;98631.94;;;22.90;95.24
21086;BME280;34247;50.064;19.970;2022-08-21T01:55:57;98630.00;;;22.84;95.24
21086;BME280;34247;50.064;19.970;2022-08-21T01:57:01;98631.28;;;22.88;95.41
21086;BME280;34247;50.064;19.970;2022-08-21T01:58:05;98636.91;;;22.87;95.32
21086;BME280;34247;50.064;19.970;2022-08-21T01:59:09;98639.78;;;22.85;95.57
21086;BME280;34247;50.064;19.970;2022-08-21T02:00:17;98625.13;;;22.73;96.06
21086;BME280;34247;50.064;19.970;2022-08-21T02:01:21;98620.94;;;22.70;96.21
21086;BME280;34247;50.064;19.970;2022-08-21T02:02:25;98637.84;;;22.79;96.19
21086;BME280;34247;50.064;19.970;2022-08-21T02:03:30;98604.25;;;22.60;96.27
21086;BME280;34247;50.064;19.970;2022-08-21T02:04:38;98637.03;;;22.78;96.12
21086;BME280;34247;50.064;19.970;2022-08-21T02:05:43;98636.00;;;22.79;96.03
21086;BME280;34247;50.064;19.970;2022-08-21T02:06:47;98635.78;;;22.81;96.05
21086;BME280;34247;50.064;19.970;2022-08-21T02:07:53;98632.25;;;22.80;96.12
21086;BME280;34247;50.064;19.970;2022-08-21T02:08:58;98633.94;;;22.81;96.00
21086;BME280;34247;50.064;19.970;2022-08-21T02:10:06;98631.88;;;22.83;96.00
21086;BME280;34247;50.064;19.970;2022-08-21T02:11:11;98632.69;;;22.84;95.95
21086;BME280;34247;50.064;19.970;2022-08-21T02:12:15;98619.13;;;22.77;95.74
21086;BME280;34247;50.064;19.970;2022-08-21T02:13:20;98635.41;;;22.84;95.80
21086;BME280;34247;50.064;19.970;2022-08-21T02:14:23;98635.22;;;22.86;95.63
21086;BME280;34247;50.064;19.970;2022-08-21T02:15:35;98635.59;;;22.82;95.82
21086;BME280;34247;50.064;19.970;2022-08-21T02:16:42;98628.50;;;22.75;95.97
21086;BME280;34247;50.064;19.970;2022-08-21T02:17:58;98631.25;;;22.81;96.05
21086;BME280;34247;50.064;19.970;2022-08-21T02:19:02;98634.56;;;22.83;95.74
21086;BME280;34247;50.064;19.970;2022-08-21T02:20:09;98633.53;;;22.84;95.84
21086;BME280;34247;50.064;19.970;2022-08-21T02:21:13;98630.81;;;22.84;95.92
21086;BME280;34247;50.064;19.970;2022-08-21T02:22:17;98633.53;;;22.84;95.87
21086;BME280;34247;50.064;19.970;2022-08-21T02:23:21;98625.81;;;22.81;95.82
21086;BME280;34247;50.064;19.970;2022-08-21T02:24:30;98630.19;;;22.82;95.99
21086;BME280;34247;50.064;19.970;2022-08-21T02:25:34;98618.50;;;22.75;95.89
21086;BME280;34247;50.064;19.970;2022-08-21T02:26:38;98630.19;;;22.82;95.77
21086;BME280;34247;50.064;19.970;2022-08-21T02:27:45;98624.34;;;22.79;96.02
21086;BME280;34247;50.064;19.970;2022-08-21T02:28:51;98623.94;;;22.82;95.89
21086;BME280;34247;50.064;19.970;2022-08-21T02:29:57;98618.53;;;22.82;95.89
21086;BME280;34247;50.064;19.970;2022-08-21T02:31:02;98619.38;;;22.82;95.87
21086;BME280;34247;50.064;19.970;2022-08-21T02:32:06;98613.97;;;22.82;95.84
21086;BME280;34247;50.064;19.970;2022-08-21T02:33:11;98615.63;;;22.83;95.81
21086;BME280;34247;50.064;19.970;2022-08-21T02:34:15;98600.59;;;22.81;95.86
21086;BME280;34247;50.064;19.970;2022-08-21T02:35:20;98603.72;;;22.78;96.30
21086;BME280;34247;50.064;19.970;2022-08-21T02:36:24;98604.16;;;22.75;96.38
21086;BME280;34247;50.064;19.970;2022-08-21T02:37:28;98606.00;;;22.74;96.43
21086;BME280;34247;50.064;19.970;2022-08-21T02:38:34;98600.59;;;22.74;96.64
21086;BME280;34247;50.064;19.970;2022-08-21T02:39:43;98604.53;;;22.72;96.55
21086;BME280;34247;50.064;19.970;2022-08-21T02:40:50;98589.28;;;22.64;96.73
21086;BME280;34247;50.064;19.970;2022-08-21T02:41:55;98605.34;;;22.72;96.48
21086;BME280;34247;50.064;19.970;2022-08-21T02:43:03;98605.56;;;22.71;96.83
21086;BME280;34247;50.064;19.970;2022-08-21T02:44:07;98598.47;;;22.70;96.88
21086;BME280;34247;50.064;19.970;2022-08-21T02:45:13;98607.63;;;22.69;96.86
21086;BME280;34247;50.064;19.970;2022-08-21T02:46:20;98606.81;;;22.68;97.11
21086;BME280;34247;50.064;19.970;2022-08-21T02:47:24;98604.28;;;22.67;97.17
21086;BME280;34247;50.064;19.970;2022-08-21T02:48:31;98601.97;;;22.64;97.36
21086;BME280;34247;50.064;19.970;2022-08-21T02:49:35;98605.72;;;22.63;97.38
21086;BME280;34247;50.064;19.970;2022-08-21T02:50:48;98604.06;;;22.62;97.74
21086;BME280;34247;50.064;19.970;2022-08-21T02:51:54;98607.59;;;22.62;97.55
21086;BME280;34247;50.064;19.970;2022-08-21T02:52:59;98605.94;;;22.61;97.85
21086;BME280;34247;50.064;19.970;2022-08-21T02:54:02;98608.63;;;22.61;97.87
21086;BME280;34247;50.064;19.970;2022-08-21T02:55:07;98602.75;;;22.57;97.89
21086;BME280;34247;50.064;19.970;2022-08-21T02:56:15;98604.88;;;22.62;97.91
21086;BME280;34247;50.064;19.970;2022-08-21T02:57:19;98610.91;;;22.64;97.88
21086;BME280;34247;50.064;19.970;2022-08-21T02:58:29;98606.34;;;22.65;97.82
21086;BME280;34247;50.064;19.970;2022-08-21T02:59:35;98607.38;;;22.64;98.00
21086;BME280;34247;50.064;19.970;2022-08-21T03:00:40;98602.59;;;22.66;97.69
21086;BME280;34247;50.064;19.970;2022-08-21T03:01:44;98584.44;;;22.53;97.64
21086;BME280;34247;50.064;19.970;2022-08-21T03:02:49;98604.28;;;22.67;97.76
21086;BME280;34247;50.064;19.970;2022-08-21T03:03:55;98606.97;;;22.67;97.69
21086;BME280;34247;50.064;19.970;2022-08-21T03:04:59;98610.53;;;22.67;97.87
21086;BME280;34247;50.064;19.970;2022-08-21T03:06:06;98607.19;;;22.65;97.95
21086;BME280;34247;50.064;19.970;2022-08-21T03:07:11;98607.19;;;22.65;98.16
21086;BME280;34247;50.064;19.970;2022-08-21T03:08:16;98610.34;;;22.69;97.79
21086;BME280;34247;50.064;19.970;2022-08-21T03:09:20;98613.03;;;22.69;97.96
21086;BME280;34247;50.064;19.970;2022-08-21T03:10:25;98605.13;;;22.67;97.92
21086;BME280;34247;50.064;19.970;2022-08-21T03:11:29;98610.97;;;22.71;98.00
21086;BME280;34247;50.064;19.970;2022-08-21T03:12:33;98611.81;;;22.71;97.87
21086;BME280;34247;50.064;19.970;2022-08-21T03:13:39;98616.16;;;22.72;97.75
21086;BME280;34247;50.064;19.970;2022-08-21T03:14:43;98616.59;;;22.69;97.97
21086;BME280;34247;50.064;19.970;2022-08-21T03:15:49;98615.75;;;22.69;97.96
21086;BME280;34247;50.064;19.970;2022-08-21T03:16:53;98614.72;;;22.70;97.86
21086;BME280;34247;50.064;19.970;2022-08-21T03:17:57;98618.44;;;22.69;98.08
21086;BME280;34247;50.064;19.970;2022-08-21T03:19:02;98613.03;;;22.69;98.13
21086;BME280;34247;50.064;19.970;2022-08-21T03:20:09;98619.91;;;22.71;98.02
21086;BME280;34247;50.064;19.970;2022-08-21T03:21:13;98619.91;;;22.71;97.85
21086;BME280;34247;50.064;19.970;2022-08-21T03:22:17;98623.06;;;22.75;98.04
21086;BME280;34247;50.064;19.970;2022-08-21T03:23:21;98620.16;;;22.76;97.83
21086;BME280;34247;50.064;19.970;2022-08-21T03:24:25;98619.97;;;22.78;97.58
21086;BME280;34247;50.064;19.970;2022-08-21T03:25:30;98624.34;;;22.79;97.69
21086;BME280;34247;50.064;19.970;2022-08-21T03:26:43;98619.13;;;22.77;97.45
21086;BME280;34247;50.064;19.970;2022-08-21T03:27:47;98615.38;;;22.78;97.34
21086;BME280;34247;50.064;19.970;2022-08-21T03:28:59;98623.94;;;22.82;97.56
21086;BME280;34247;50.064;19.970;2022-08-21T03:30:06;98615.19;;;22.80;97.52
21086;BME280;34247;50.064;19.970;2022-08-21T03:31:10;98627.28;;;22.84;97.20
21086;BME280;34247;50.064;19.970;2022-08-21T03:32:15;98621.88;;;22.84;97.29
21086;BME280;34247;50.064;19.970;2022-08-21T03:33:20;98630.81;;;22.84;97.06
21086;BME280;34247;50.064;19.970;2022-08-21T03:34:26;98623.53;;;22.85;97.20
21086;BME280;34247;50.064;19.970;2022-08-21T03:35:30;98632.53;;;22.86;97.03
21086;BME280;34247;50.064;19.970;2022-08-21T03:36:34;98626.69;;;22.89;97.26
21086;BME280;34247;50.064;19.970;2022-08-21T03:37:38;98638.19;;;22.91;97.10
21086;BME280;34247;50.064;19.970;2022-08-21T03:38:43;98608.72;;;22.74;97.13
21086;BME280;34247;50.064;19.970;2022-08-21T03:39:47;98611.81;;;22.71;97.18
21086;BME280;34247;50.064;19.970;2022-08-21T03:40:51;98635.22;;;22.86;97.26
21086;BME280;34247;50.064;19.970;2022-08-21T03:41:55;98631.47;;;22.87;97.25
21086;BME280;34247;50.064;19.970;2022-08-21T03:42:59;98641.94;;;22.90;97.44
21086;BME280;34247;50.064;19.970;2022-08-21T03:44:03;98642.75;;;22.90;97.19
21086;BME280;34247;50.064;19.970;2022-08-21T03:45:08;98631.09;;;22.90;97.20
21086;BME280;34247;50.064;19.970;2022-08-21T03:46:12;98640.47;;;22.94;96.95
21086;BME280;34247;50.064;19.970;2022-08-21T03:47:17;98632.34;;;22.94;96.98
21086;BME280;34247;50.064;19.970;2022-08-21T03:48:21;98622.31;;;22.88;96.76
21086;BME280;34247;50.064;19.970;2022-08-21T03:49:26;98642.16;;;22.95;96.90
21086;BME280;34247;50.064;19.970;2022-08-21T03:50:34;98638.41;;;22.96;96.73
21086;BME280;34247;50.064;19.970;2022-08-21T03:51:43;98638.22;;;22.97;96.54
21086;BME280;34247;50.064;19.970;2022-08-21T03:52:47;98634.84;;;22.95;96.78
21086;BME280;34247;50.064;19.970;2022-08-21T03:53:52;98639.88;;;22.98;96.72
21086;BME280;34247;50.064;19.970;2022-08-21T03:54:56;98639.69;;;23.00;96.73
21086;BME280;34247;50.064;19.970;2022-08-21T03:56:00;98638.84;;;22.99;96.78
21086;BME280;34247;50.064;19.970;2022-08-21T03:57:04;98643.00;;;23.02;96.58
21086;BME280;34247;50.064;19.970;2022-08-21T03:58:08;98636.78;;;23.01;96.60
21086;BME280;34247;50.064;19.970;2022-08-21T03:59:19;98638.25;;;23.04;96.53
21086;BME280;34247;50.064;19.970;2022-08-21T04:00:24;98643.69;;;23.04;96.47
21086;BME280;34247;50.064;19.970;2022-08-21T04:01:29;98643.25;;;23.07;96.50
21086;BME280;34247;50.064;19.970;2022-08-21T04:02:33;98636.19;;;23.06;96.46
21086;BME280;34247;50.064;19.970;2022-08-21T04:03:38;98643.47;;;23.05;96.38
21086;BME280;34247;50.064;19.970;2022-08-21T04:04:42;98640.97;;;23.04;96.43
21086;BME280;34247;50.064;19.970;2022-08-21T04:05:46;98644.50;;;23.04;96.46
21086;BME280;34247;50.064;19.970;2022-08-21T04:06:50;98642.84;;;23.03;96.50
21086;BME280;34247;50.064;19.970;2022-08-21T04:07:57;98646.19;;;23.05;96.38
21086;BME280;34247;50.064;19.970;2022-08-21T04:09:02;98647.00;;;23.06;96.50
21086;BME280;34247;50.064;19.970;2022-08-21T04:10:07;98647.84;;;23.06;96.43
21086;BME280;34247;50.064;19.970;2022-08-21T04:11:12;98646.81;;;23.07;96.06
21086;BME280;34247;50.064;19.970;2022-08-21T04:12:16;98641.59;;;23.06;96.04
21086;BME280;34247;50.064;19.970;2022-08-21T04:13:20;98645.75;;;23.08;96.10
21086;BME280;34247;50.064;19.970;2022-08-21T04:14:24;98645.75;;;23.08;96.38
21086;BME280;34247;50.064;19.970;2022-08-21T04:15:28;98631.34;;;23.01;96.36
21086;BME280;34247;50.064;19.970;2022-08-21T04:16:32;98646.19;;;23.05;96.42
21086;BME280;34247;50.064;19.970;2022-08-21T04:17:36;98648.69;;;23.07;96.46
21086;BME280;34247;50.064;19.970;2022-08-21T04:18:41;98640.56;;;23.07;96.59
21086;BME280;34247;50.064;19.970;2022-08-21T04:19:45;98654.09;;;23.07;96.55
21086;BME280;34247;50.064;19.970;2022-08-21T04:20:57;98645.13;;;23.06;96.66
21086;BME280;34247;50.064;19.970;2022-08-21T04:22:04;98643.88;;;23.09;96.47
21086;BME280;34247;50.064;19.970;2022-08-21T04:23:08;98651.84;;;23.10;96.66
21086;BME280;34247;50.064;19.970;2022-08-21T04:24:12;98620.91;;;22.92;96.33
21086;BME280;34247;50.064;19.970;2022-08-21T04:25:17;98651.84;;;23.10;96.60
21086;BME280;34247;50.064;19.970;2022-08-21T04:26:22;98638.44;;;23.02;96.98
21086;BME280;34247;50.064;19.970;2022-08-21T04:27:27;98650.59;;;23.13;96.78
21086;BME280;34247;50.064;19.970;2022-08-21T04:28:31;98652.25;;;23.14;96.65
21086;BME280;34247;50.064;19.970;2022-08-21T04:29:35;98656.63;;;23.15;96.43
21086;BME280;34247;50.064;19.970;2022-08-21T04:30:42;98654.75;;;23.16;96.67
21086;BME280;34247;50.064;19.970;2022-08-21T04:31:46;98649.97;;;23.18;96.40
21086;BME280;34247;50.064;19.970;2022-08-21T04:32:50;98649.78;;;23.19;96.60
21086;BME280;34247;50.064;19.970;2022-08-21T04:33:54;98636.59;;;23.09;96.65
21086;BME280;34247;50.064;19.970;2022-08-21T04:35:05;98651.47;;;23.20;96.57
21086;BME280;34247;50.064;19.970;2022-08-21T04:36:09;98645.00;;;23.21;96.46
21086;BME280;34247;50.064;19.970;2022-08-21T04:37:13;98652.72;;;23.24;96.17
21086;BME280;34247;50.064;19.970;2022-08-21T04:38:19;98634.38;;;23.20;96.04
21086;BME280;34247;50.064;19.970;2022-08-21T04:39:23;98637.50;;;23.23;96.12
21086;BME280;34247;50.064;19.970;2022-08-21T04:40:32;98656.28;;;23.31;95.92
21086;BME280;34247;50.064;19.970;2022-08-21T04:41:36;98646.72;;;23.35;95.39
21086;BME280;34247;50.064;19.970;2022-08-21T04:42:51;98653.81;;;23.36;95.46
21086;BME280;34247;50.064;19.970;2022-08-21T04:43:56;98656.75;;;23.42;95.23
21086;BME280;34247;50.064;19.970;2022-08-21T04:45:00;98658.22;;;23.44;95.13
21086;BME280;34247;50.064;19.970;2022-08-21T04:46:04;98658.84;;;23.46;94.94
21086;BME280;34247;50.064;19.970;2022-08-21T04:47:09;98655.13;;;23.47;94.37
21086;BME280;34247;50.064;19.970;2022-08-21T04:48:14;98648.22;;;23.45;94.58
21086;BME280;34247;50.064;19.970;2022-08-21T04:49:18;98655.53;;;23.51;94.45
21086;BME280;34247;50.064;19.970;2022-08-21T04:50:29;98650.94;;;23.51;94.44
21086;BME280;34247;50.064;19.970;2022-08-21T04:51:37;98654.28;;;23.53;94.17
21086;BME280;34247;50.064;19.970;2022-08-21T04:52:44;98656.41;;;23.58;94.15
21086;BME280;34247;50.064;19.970;2022-08-21T04:54:00;98646.16;;;23.53;93.71
21086;BME280;34247;50.064;19.970;2022-08-21T04:55:06;98652.91;;;23.64;93.36
21086;BME280;34247;50.064;19.970;2022-08-21T04:56:56;98657.91;;;23.67;93.35
21086;BME280;34247;50.064;19.970;2022-08-21T04:57:59;98661.28;;;23.69;92.42
21086;BME280;34247;50.064;19.970;2022-08-21T04:59:10;98655.84;;;23.69;92.52
21086;BME280;34247;50.064;19.970;2022-08-21T05:00:17;98655.44;;;23.72;92.23
21086;BME280;34247;50.064;19.970;2022-08-21T05:01:25;98663.56;;;23.72;92.33
21086;BME280;34247;50.064;19.970;2022-08-21T05:02:31;98659.81;;;23.73;92.26
21086;BME280;34247;50.064;19.970;2022-08-21T05:03:37;98664.19;;;23.74;92.06
21086;BME280;34247;50.064;19.970;2022-08-21T05:04:51;98663.13;;;23.75;92.16
21086;BME280;34247;50.064;19.970;2022-08-21T05:05:56;98658.75;;;23.74;91.85
21086;BME280;34247;50.064;19.970;2022-08-21T05:07:04;98656.50;;;23.78;91.89
21086;BME280;34247;50.064;19.970;2022-08-21T05:08:15;98667.13;;;23.79;91.52
21086;BME280;34247;50.064;19.970;2022-08-21T05:09:21;98665.88;;;23.82;91.51
21086;BME280;34247;50.064;19.970;2022-08-21T05:10:26;98665.03;;;23.81;91.39
21086;BME280;34247;50.064;19.970;2022-08-21T05:11:31;98660.44;;;23.82;91.17
21086;BME280;34247;50.064;19.970;2022-08-21T05:12:35;98663.16;;;23.82;91.08
21086;BME280;34247;50.064;19.970;2022-08-21T05:13:40;98666.06;;;23.80;91.26
21086;BME280;34247;50.064;19.970;2022-08-21T05:14:46;98666.91;;;23.81;91.20
21086;BME280;34247;50.064;19.970;2022-08-21T05:15:50;98674.81;;;23.82;91.17
21086;BME280;34247;50.064;19.970;2022-08-21T05:16:54;98667.75;;;23.81;91.38
21086;BME280;34247;50.064;19.970;2022-08-21T05:17:58;98665.47;;;23.78;91.34
21086;BME280;34247;50.064;19.970;2022-08-21T05:19:05;98661.69;;;23.79;91.12
21086;BME280;34247;50.064;19.970;2022-08-21T05:20:12;98666.06;;;23.74;91.05
21086;BME280;34247;50.064;19.970;2022-08-21T05:21:16;98667.72;;;23.75;91.24
21086;BME280;34247;50.064;19.970;2022-08-21T05:22:22;98667.94;;;23.73;91.28
21086;BME280;34247;50.064;19.970;2022-08-21T05:23:27;98667.94;;;23.73;91.68
21086;BME280;34247;50.064;19.970;2022-08-21T05:24:32;98671.25;;;23.75;91.51
21086;BME280;34247;50.064;19.970;2022-08-21T05:25:38;98668.38;;;23.77;91.55
21086;BME280;34247;50.064;19.970;2022-08-21T05:26:42;98677.13;;;23.79;91.55
21086;BME280;34247;50.064;19.970;2022-08-21T05:27:49;98669.41;;;23.82;91.31
21086;BME280;34247;50.064;19.970;2022-08-21T05:28:55;98659.19;;;23.78;91.41
21086;BME280;34247;50.064;19.970;2022-08-21T05:30:00;98674.66;;;23.84;90.74
21086;BME280;34247;50.064;19.970;2022-08-21T05:31:05;98670.44;;;23.81;91.02
21086;BME280;34247;50.064;19.970;2022-08-21T05:32:11;98671.94;;;23.84;90.93
21086;BME280;34247;50.064;19.970;2022-08-21T05:33:16;98673.41;;;23.86;91.01
21086;BME280;34247;50.064;19.970;2022-08-21T05:34:23;98671.50;;;23.87;90.81
21086;BME280;34247;50.064;19.970;2022-08-21T05:35:29;98672.97;;;23.89;90.95
21086;BME280;34247;50.064;19.970;2022-08-21T05:36:33;98673.63;;;23.91;90.68
21086;BME280;34247;50.064;19.970;2022-08-21T05:37:37;98671.53;;;23.93;90.49
21086;BME280;34247;50.064;19.970;2022-08-21T05:38:41;98679.66;;;23.93;90.52
21086;BME280;34247;50.064;19.970;2022-08-21T05:39:45;98678.63;;;23.94;90.23
21086;BME280;34247;50.064;19.970;2022-08-21T05:41:10;98673.81;;;23.97;90.03
21086;BME280;34247;50.064;19.970;2022-08-21T05:42:14;98675.69;;;23.96;89.85
21086;BME280;34247;50.064;19.970;2022-08-21T05:43:18;98676.34;;;23.98;90.10
21086;BME280;34247;50.064;19.970;2022-08-21T05:44:22;98683.66;;;23.98;89.89
21086;BME280;34247;50.064;19.970;2022-08-21T05:45:31;98675.28;;;23.92;90.05